チューリッヒ の空港の天気 - METARとTAF

チューリヒ国際空港 ( LSZH / ZRH ) - スイス チューリッヒ
飛行場実況気象(Metar)
観測時間07/22 02:20 CEST (07/22 00:20 UTC)
風向・風速南 3m/s
視程10km以上
天気現象
少しの雲 雲底高度 400m
全天の8割程度の雲 雲底高度 2740m
気温18℃
湿度88%
気圧1015hPa
METARLSZH 220020Z 17006KT 9999 FEW013 BKN090 18/16 Q1015 TEMPO SHRA
過去の天気等 Google飛行場航空写真 Wunderground天気予報

過去48時間のMETAR

飛行場予報(TAF)
発表時間: 7/22 01:25 CEST (7/21 23:25 UTC)
予報対象時間: 22日2時 CEST ~ 23日8時 CEST
風向・風速不定 2m/s
視程10km以上
少しの雲 雲底高度 460m
全天の8割程度の雲 雲底高度 2,740m
22日2時 CEST ~ 22日5時 CEST に一時的に
天気現象弱いしゅう雨
22日4時 CEST ~ 22日8時 CEST に一時的に
視程400m
天気現象部分霧
22日18時 CEST ~ 23日1時 CEST に一時的に
風向・風速西南西 8m/s 瞬間風速 15m/s
視程4,500m
天気現象雷雨
全天の4割程度の積乱雲 雲底高度 1,070m
全天の8割程度の雲 雲底高度 1,520m
TAF LSZH 212325Z 2200/2306 VRB03KT 9999 FEW015 BKN090 TX28/2215Z TN16/2204Z TN17/2304Z
TEMPO 2200/2203 -SHRA
TEMPO 2202/2206 0400 PRFG
TEMPO 2216/2223 25015G30KT 4500 TSRA SCT035CB BKN050